Time;durP1;ratioP1;P1;durP2;ratioP2;P2;SDS_P1;SDS_P2;PMS_P1;PMS_P2;Temp;Humidity;BMP_temperature;BMP_pressure;BME280_temperature;BME280_humidity;BME280_pressure;Samples;Min_cycle;Max_cycle;Signal;HPM_P1;HPM_P2
2023/04/09 00:01:02;;;;;;;60.67;28.20;;;8.70;99.90;;;;;;5036571;28;20044;-83
2023/04/09 00:03:28;;;;;;;57.80;27.15;;;8.70;99.90;;;;;;5029703;28;20490;-83
2023/04/09 00:05:54;;;;;;;59.38;27.65;;;8.60;99.90;;;;;;5015029;28;20052;-82
2023/04/09 00:08:22;;;;;;;62.42;27.85;;;8.70;99.90;;;;;;5039460;28;20044;-83
2023/04/09 00:10:49;;;;;;;60.53;26.55;;;8.90;99.90;;;;;;5033933;28;20052;-84
2023/04/09 00:13:14;;;;;;;60.28;28.38;;;8.70;99.90;;;;;;5048632;28;20131;-87
2023/04/09 00:15:40;;;;;;;61.88;27.83;;;8.30;99.90;;;;;;5039166;28;20179;-92
2023/04/09 00:18:06;;;;;;;63.15;27.95;;;8.60;99.90;;;;;;5023756;28;20037;-83
2023/04/09 00:20:31;;;;;;;63.92;28.75;;;8.70;99.90;;;;;;5036245;28;20500;-83
2023/04/09 00:22:57;;;;;;;59.22;27.40;;;8.60;99.90;;;;;;5026326;28;20447;-83
2023/04/09 00:25:23;;;;;;;68.88;28.67;;;8.70;99.90;;;;;;5036228;28;20079;-83
2023/04/09 00:27:49;;;;;;;60.35;28.02;;;8.60;99.90;;;;;;5055677;28;20511;-83
2023/04/09 00:30:15;;;;;;;59.25;26.60;;;8.60;99.90;;;;;;5038175;28;20047;-83
2023/04/09 00:32:40;;;;;;;51.72;25.30;;;8.60;99.90;;;;;;5020748;28;20153;-83
2023/04/09 00:35:07;;;;;;;52.45;24.65;;;8.60;99.90;;;;;;5046332;28;20040;-82
2023/04/09 00:37:33;;;;;;;55.85;25.77;;;8.60;99.90;;;;;;5048749;28;20489;-82
2023/04/09 00:39:58;;;;;;;50.70;23.63;;;8.60;99.90;;;;;;5070554;28;20048;-82
2023/04/09 00:42:25;;;;;;;48.50;22.70;;;8.80;99.90;;;;;;5037561;28;20045;-86
2023/04/09 00:44:51;;;;;;;51.22;22.20;;;8.70;99.90;;;;;;5046403;28;20499;-83
2023/04/09 00:47:17;;;;;;;49.97;22.65;;;8.50;99.90;;;;;;5012603;28;20048;-82
2023/04/09 00:49:43;;;;;;;49.90;23.42;;;8.60;99.90;;;;;;5036854;28;20036;-87
2023/04/09 00:52:09;;;;;;;49.05;21.83;;;8.40;99.90;;;;;;5041505;28;20044;-82
2023/04/09 00:54:36;;;;;;;50.70;22.65;;;8.50;99.90;;;;;;5059217;28;20045;-83
2023/04/09 00:57:02;;;;;;;45.60;21.75;;;8.70;99.90;;;;;;5021265;28;20045;-84
2023/04/09 00:59:29;;;;;;;44.42;21.38;;;8.50;99.90;;;;;;5020609;28;20123;-83
2023/04/09 01:01:54;;;;;;;44.60;21.13;;;8.50;99.90;;;;;;5037694;28;20131;-82
2023/04/09 01:04:21;;;;;;;46.10;20.95;;;8.30;99.90;;;;;;5025688;28;20186;-82
2023/04/09 01:06:51;;;;;;;45.15;22.45;;;8.40;99.90;;;;;;5038426;28;20123;-88
2023/04/09 01:09:20;;;;;;;46.20;21.10;;;8.40;99.90;;;;;;5037936;28;20044;-82
2023/04/09 01:12:13;;;;;;;43.17;21.13;;;8.50;99.90;;;;;;5054394;28;20053;-82
2023/04/09 01:14:53;;;;;;;39.28;19.10;;;8.40;99.90;;;;;;5048768;28;20041;-83
2023/04/09 01:17:34;;;;;;;42.20;20.70;;;8.40;99.90;;;;;;5050448;28;20052;-82
2023/04/09 01:20:18;;;;;;;42.67;19.63;;;8.30;99.90;;;;;;5048907;28;20406;-82
2023/04/09 01:23:10;;;;;;;41.35;20.40;;;8.30;99.90;;;;;;5036122;28;20135;-82
2023/04/09 01:25:57;;;;;;;38.30;19.25;;;8.40;99.90;;;;;;5050557;28;20056;-84
2023/04/09 01:28:30;;;;;;;43.03;19.38;;;8.30;99.90;;;;;;5049530;28;20131;-82
2023/04/09 01:31:12;;;;;;;39.67;19.17;;;8.30;99.90;;;;;;5055289;28;20141;-82
2023/04/09 01:33:40;;;;;;;44.70;19.50;;;8.20;99.90;;;;;;5065600;28;20053;-82
2023/04/09 01:36:07;;;;;;;37.67;19.30;;;8.30;99.90;;;;;;5037304;28;20055;-82
2023/04/09 01:38:35;;;;;;;38.22;19.55;;;8.20;99.90;;;;;;5065806;28;20406;-83
2023/04/09 01:41:02;;;;;;;39.05;20.35;;;7.90;99.90;;;;;;5052592;28;20505;-82
2023/04/09 01:43:30;;;;;;;41.47;20.23;;;8.00;99.90;;;;;;5054369;28;20051;-82
2023/04/09 01:45:58;;;;;;;38.35;18.83;;;8.20;99.90;;;;;;5064788;28;20393;-82
2023/04/09 01:48:24;;;;;;;43.22;20.00;;;7.90;99.90;;;;;;5041801;28;20050;-82
2023/04/09 01:50:50;;;;;;;39.63;19.23;;;7.90;99.90;;;;;;5043929;28;20059;-85
2023/04/09 01:53:17;;;;;;;37.55;18.75;;;7.90;99.90;;;;;;5041034;28;20048;-82
2023/04/09 01:55:42;;;;;;;38.17;18.33;;;7.60;99.90;;;;;;5042522;28;20045;-82
2023/04/09 01:58:08;;;;;;;38.50;19.45;;;7.90;99.90;;;;;;5023073;28;20470;-82
2023/04/09 02:00:38;;;;;;;39.85;19.17;;;7.50;99.90;;;;;;5067743;28;20054;-82
2023/04/09 02:03:12;;;;;;;41.60;19.27;;;7.30;99.90;;;;;;5061632;28;20058;-82
2023/04/09 02:05:43;;;;;;;43.13;19.55;;;7.30;99.90;;;;;;5047917;28;20111;-83
2023/04/09 02:08:14;;;;;;;42.40;20.20;;;7.40;99.90;;;;;;5039790;28;20072;-82
2023/04/09 02:10:41;;;;;;;37.08;18.42;;;7.40;99.90;;;;;;5056355;28;20127;-82
2023/04/09 02:13:10;;;;;;;39.50;19.20;;;7.30;99.90;;;;;;5041497;28;20052;-82
2023/04/09 02:15:39;;;;;;;40.92;20.17;;;7.50;99.90;;;;;;5051902;28;20048;-84
2023/04/09 02:18:19;;;;;;;39.40;19.88;;;7.70;99.90;;;;;;5056158;28;20052;-82
2023/04/09 02:20:45;;;;;;;40.17;19.83;;;7.20;99.90;;;;;;5048558;28;20048;-84
2023/04/09 02:23:10;;;;;;;43.00;19.73;;;7.60;99.90;;;;;;5027059;28;20135;-83
2023/04/09 02:25:36;;;;;;;39.67;19.42;;;7.60;99.90;;;;;;5064721;28;20131;-83
2023/04/09 02:28:02;;;;;;;43.22;20.27;;;7.60;99.90;;;;;;5037981;28;20068;-83
2023/04/09 02:30:27;;;;;;;40.35;19.08;;;7.80;99.90;;;;;;5040832;28;20040;-83
2023/04/09 02:32:53;;;;;;;37.08;18.70;;;7.40;99.90;;;;;;5046299;28;20048;-82
2023/04/09 02:35:19;;;;;;;36.17;18.20;;;7.80;99.90;;;;;;5037675;28;20286;-82
2023/04/09 02:37:44;;;;;;;38.28;17.45;;;7.50;99.90;;;;;;5055058;28;20039;-82
2023/04/09 02:40:10;;;;;;;36.85;18.08;;;7.70;99.90;;;;;;5057357;28;20110;-83
2023/04/09 02:42:36;;;;;;;38.50;18.45;;;7.50;99.90;;;;;;5070404;28;20143;-83
2023/04/09 02:45:02;;;;;;;45.15;20.00;;;7.60;99.90;;;;;;5052924;28;20131;-89
2023/04/09 02:47:29;;;;;;;42.83;19.13;;;7.60;99.90;;;;;;5042781;28;20094;-82
2023/04/09 02:49:54;;;;;;;41.00;20.02;;;8.00;99.90;;;;;;5051090;28;20450;-82
2023/04/09 02:52:23;;;;;;;42.65;18.98;;;7.70;99.90;;;;;;5067075;28;20056;-82
2023/04/09 02:54:49;;;;;;;37.25;18.50;;;7.60;99.90;;;;;;5026587;28;20052;-82
2023/04/09 02:57:14;;;;;;;40.78;19.85;;;8.00;99.90;;;;;;5035832;28;20048;-86
2023/04/09 02:59:40;;;;;;;35.50;18.98;;;7.60;99.90;;;;;;5022676;28;20041;-82
2023/04/09 03:02:06;;;;;;;40.08;19.40;;;8.10;99.90;;;;;;5041298;28;20385;-83
2023/04/09 03:04:31;;;;;;;36.60;18.88;;;7.70;99.90;;;;;;5037137;28;20049;-81
2023/04/09 03:06:57;;;;;;;41.85;19.42;;;7.70;99.90;;;;;;5054939;28;20040;-83
2023/04/09 03:09:23;;;;;;;38.42;19.13;;;7.90;99.90;;;;;;5045040;28;20094;-82
2023/04/09 03:11:48;;;;;;;40.05;19.90;;;7.40;99.90;;;;;;5063218;28;20052;-83
2023/04/09 03:14:14;;;;;;;42.78;19.85;;;7.90;99.90;;;;;;5030731;28;20075;-82
2023/04/09 03:16:40;;;;;;;47.45;21.30;;;7.80;99.90;;;;;;5057011;28;20059;-82
2023/04/09 03:19:05;;;;;;;39.17;19.30;;;7.90;99.90;;;;;;5022001;28;20438;-85
2023/04/09 03:21:32;;;;;;;41.00;21.08;;;7.60;99.90;;;;;;5037905;28;20370;-82
2023/04/09 03:23:57;;;;;;;43.03;20.55;;;8.00;99.90;;;;;;5032488;28;20051;-82
2023/04/09 03:26:23;;;;;;;40.97;20.08;;;8.10;99.90;;;;;;5048966;28;20409;-83
2023/04/09 03:28:48;;;;;;;43.85;20.05;;;7.90;99.90;;;;;;5040270;28;20087;-83
2023/04/09 03:31:14;;;;;;;40.05;19.45;;;7.70;99.90;;;;;;5032144;28;20067;-83
2023/04/09 03:33:40;;;;;;;42.97;19.42;;;7.70;99.90;;;;;;5056396;28;20048;-82
2023/04/09 03:36:06;;;;;;;41.92;19.13;;;7.80;99.90;;;;;;5039624;28;20044;-86
2023/04/09 03:38:32;;;;;;;40.75;20.90;;;7.70;99.90;;;;;;5039870;28;20043;-82
2023/04/09 03:40:57;;;;;;;44.45;20.02;;;7.80;99.90;;;;;;5073316;28;20044;-83
2023/04/09 03:43:23;;;;;;;43.38;20.67;;;7.70;99.90;;;;;;5026361;28;20211;-82
2023/04/09 03:45:49;;;;;;;44.85;20.80;;;7.80;99.90;;;;;;5056516;28;20056;-82
2023/04/09 03:48:15;;;;;;;42.53;19.65;;;8.00;99.90;;;;;;5039842;28;20052;-83
2023/04/09 03:50:41;;;;;;;45.55;20.63;;;7.80;99.90;;;;;;5040388;28;20537;-82
2023/04/09 03:53:07;;;;;;;44.28;19.70;;;7.80;99.90;;;;;;5056242;28;20040;-83
2023/04/09 03:55:33;;;;;;;45.75;21.63;;;8.00;99.90;;;;;;5038628;28;20070;-82
2023/04/09 03:57:58;;;;;;;43.00;20.23;;;7.90;99.90;;;;;;5034194;28;20114;-82
2023/04/09 04:00:24;;;;;;;42.67;20.33;;;8.00;99.90;;;;;;5038339;28;20049;-82
2023/04/09 04:02:50;;;;;;;52.20;22.90;;;7.70;99.90;;;;;;5025222;28;20474;-83
2023/04/09 04:05:16;;;;;;;40.47;20.50;;;7.90;99.90;;;;;;5048980;28;20076;-83
2023/04/09 04:07:42;;;;;;;44.72;21.42;;;8.00;99.90;;;;;;5022688;28;20461;-82
2023/04/09 04:10:09;;;;;;;42.22;19.92;;;8.10;99.90;;;;;;5026703;28;20080;-83
2023/04/09 04:12:35;;;;;;;45.08;20.67;;;7.80;99.90;;;;;;5039398;28;20063;-83
2023/04/09 04:15:01;;;;;;;47.55;22.35;;;7.90;99.90;;;;;;5039436;28;20397;-83
2023/04/09 04:17:26;;;;;;;46.08;21.92;;;7.80;99.90;;;;;;5034700;28;20457;-82
2023/04/09 04:19:52;;;;;;;45.95;21.13;;;7.80;99.90;;;;;;5043745;28;20072;-82
2023/04/09 04:22:18;;;;;;;43.97;20.75;;;7.70;99.90;;;;;;5053429;28;20042;-82
2023/04/09 04:24:43;;;;;;;48.22;22.13;;;7.90;99.90;;;;;;5039220;28;20133;-82
2023/04/09 04:27:09;;;;;;;47.70;22.08;;;8.10;99.90;;;;;;5022843;28;20091;-82
2023/04/09 04:29:36;;;;;;;54.08;23.30;;;8.10;99.90;;;;;;5055984;28;20040;-82
2023/04/09 04:32:02;;;;;;;50.15;21.27;;;8.30;1.00;;;;;;5022750;28;20044;-84
2023/04/09 04:34:27;;;;;;;46.25;22.48;;;7.70;1.00;;;;;;5052541;28;20097;-82
2023/04/09 04:36:53;;;;;;;42.20;20.83;;;7.90;1.00;;;;;;5042588;28;20060;-82
2023/04/09 04:39:19;;;;;;;47.72;20.88;;;7.90;1.00;;;;;;5059090;28;20040;-83
2023/04/09 04:41:45;;;;;;;38.05;19.27;;;7.90;99.90;;;;;;5059259;28;20047;-82
2023/04/09 04:44:10;;;;;;;36.00;18.60;;;7.80;99.90;;;;;;5059196;28;20048;-82
2023/04/09 04:46:36;;;;;;;37.08;18.50;;;7.90;99.90;;;;;;5055882;28;20040;-81
2023/04/09 04:49:01;;;;;;;38.50;17.55;;;7.80;99.90;;;;;;5037007;28;20044;-82
2023/04/09 04:51:30;;;;;;;38.20;18.45;;;7.90;99.90;;;;;;5059195;28;20122;-82
2023/04/09 04:53:56;;;;;;;33.33;16.48;;;7.90;99.90;;;;;;5060041;28;20075;-82
2023/04/09 04:56:21;;;;;;;34.85;18.58;;;7.80;99.90;;;;;;5059027;28;20485;-84
2023/04/09 04:58:47;;;;;;;36.53;18.48;;;7.80;99.90;;;;;;5038973;28;20183;-82
2023/04/09 05:01:16;;;;;;;36.75;17.90;;;7.70;99.90;;;;;;5054678;28;20048;-83
2023/04/09 05:03:41;;;;;;;41.47;21.08;;;7.90;99.90;;;;;;5039017;28;20131;-82
2023/04/09 05:06:07;;;;;;;44.05;20.80;;;8.00;99.90;;;;;;5059604;28;20434;-83
2023/04/09 05:08:33;;;;;;;41.53;19.60;;;7.90;99.90;;;;;;5045537;28;20062;-82
2023/04/09 05:10:59;;;;;;;42.97;20.85;;;7.60;99.90;;;;;;5057227;28;20140;-81
2023/04/09 05:13:25;;;;;;;44.17;20.13;;;7.90;99.90;;;;;;5045571;28;20508;-82
2023/04/09 05:15:50;;;;;;;47.80;20.30;;;7.90;99.90;;;;;;5045249;28;20052;-82
2023/04/09 05:18:16;;;;;;;39.10;20.30;;;7.90;99.90;;;;;;5028839;28;20122;-83
2023/04/09 05:20:42;;;;;;;43.00;19.77;;;8.20;99.90;;;;;;5045512;28;20040;-83
2023/04/09 05:23:11;;;;;;;42.92;20.80;;;8.00;99.90;;;;;;5084637;28;20097;-83
2023/04/09 05:25:37;;;;;;;45.88;21.35;;;8.40;99.90;;;;;;5072549;28;20051;-83
2023/04/09 05:28:03;;;;;;;41.50;21.10;;;8.20;99.90;;;;;;5058213;28;20461;-84
2023/04/09 05:30:29;;;;;;;43.35;21.17;;;7.80;99.90;;;;;;5052502;28;20087;-83
2023/04/09 05:32:54;;;;;;;42.95;20.00;;;8.20;99.90;;;;;;5065534;28;20489;-83
2023/04/09 05:35:20;;;;;;;41.40;18.98;;;8.20;99.90;;;;;;5082036;28;20130;-83
2023/04/09 05:37:46;;;;;;;42.83;18.40;;;8.20;99.90;;;;;;5037751;28;20059;-83
2023/04/09 05:40:12;;;;;;;42.53;19.42;;;8.10;99.90;;;;;;5080709;28;20039;-83
2023/04/09 05:42:37;;;;;;;32.85;17.63;;;8.10;99.90;;;;;;5047771;28;20056;-83
2023/04/09 05:45:03;;;;;;;41.40;20.67;;;8.00;99.90;;;;;;5063080;28;20414;-83
2023/04/09 05:47:29;;;;;;;38.35;18.23;;;8.00;99.90;;;;;;5071389;28;20048;-82
2023/04/09 05:49:55;;;;;;;39.80;20.75;;;8.30;99.90;;;;;;5085690;28;20050;-84
2023/04/09 05:52:21;;;;;;;38.85;19.30;;;8.30;99.90;;;;;;5060912;28;20080;-83
2023/04/09 05:54:46;;;;;;;43.55;21.77;;;8.20;99.90;;;;;;5071767;28;20036;-81
2023/04/09 05:57:13;;;;;;;41.00;20.85;;;8.10;99.90;;;;;;5064888;28;20066;-85
2023/04/09 05:59:39;;;;;;;41.83;20.27;;;8.20;99.90;;;;;;5051982;28;20041;-84
2023/04/09 06:02:05;;;;;;;42.72;21.00;;;8.50;99.90;;;;;;5075600;28;20051;-84
2023/04/09 06:04:30;;;;;;;43.70;20.15;;;8.40;99.90;;;;;;5060430;28;20048;-84
2023/04/09 06:06:59;;;;;;;39.95;20.95;;;8.10;99.90;;;;;;5081700;28;20048;-84
2023/04/09 06:09:26;;;;;;;38.45;21.05;;;8.40;99.90;;;;;;5080991;28;20075;-84
2023/04/09 06:11:51;;;;;;;39.88;20.13;;;8.50;99.90;;;;;;5054322;28;20052;-84
2023/04/09 06:14:17;;;;;;;41.92;20.00;;;8.30;99.90;;;;;;5075100;28;20046;-84
2023/04/09 06:16:43;;;;;;;35.60;18.92;;;8.40;99.90;;;;;;5075009;28;20100;-85
2023/04/09 06:19:08;;;;;;;37.47;18.23;;;8.80;99.90;;;;;;5069945;28;20037;-85
2023/04/09 06:21:34;;;;;;;35.75;17.73;;;8.60;99.90;;;;;;5054302;28;20044;-86
2023/04/09 06:24:00;;;;;;;37.42;17.23;;;8.70;99.90;;;;;;5061704;28;20084;-85
2023/04/09 06:26:25;;;;;;;38.92;19.02;;;8.40;99.90;;;;;;5077154;28;20076;-85
2023/04/09 06:28:51;;;;;;;37.17;18.33;;;8.90;99.90;;;;;;5076244;28;20071;-84
2023/04/09 06:31:17;;;;;;;36.38;17.05;;;8.60;99.90;;;;;;5076128;28;20035;-86
2023/04/09 06:33:42;;;;;;;32.60;16.90;;;8.60;99.90;;;;;;5086875;28;20375;-85
2023/04/09 06:36:08;;;;;;;32.15;16.85;;;8.80;99.90;;;;;;5041075;28;20047;-86
2023/04/09 06:38:34;;;;;;;34.50;16.85;;;9.10;99.90;;;;;;5037675;28;20804;-84
2023/04/09 06:41:00;;;;;;;37.60;18.08;;;9.00;99.90;;;;;;5039649;28;20047;-83
2023/04/09 06:43:25;;;;;;;34.97;17.27;;;9.10;99.90;;;;;;5063362;28;20051;-84
2023/04/09 06:45:51;;;;;;;37.47;17.60;;;9.20;99.90;;;;;;5078063;28;20068;-82
2023/04/09 06:48:17;;;;;;;36.00;17.42;;;9.40;94.30;;;;;;5070022;28;20042;-83
2023/04/09 06:50:43;;;;;;;39.08;19.60;;;9.20;73.70;;;;;;5042392;28;20405;-83
2023/04/09 06:53:09;;;;;;;40.45;20.23;;;9.40;39.00;;;;;;5075463;28;20509;-84
2023/04/09 06:55:35;;;;;;;38.25;18.80;;;9.20;20.90;;;;;;5054956;28;20082;-88
2023/04/09 06:58:01;;;;;;;39.53;20.30;;;9.60;3.80;;;;;;5059144;28;20040;-83
2023/04/09 07:00:27;;;;;;;37.70;18.70;;;9.40;1.00;;;;;;5075371;28;20048;-82
2023/04/09 07:02:53;;;;;;;41.45;20.88;;;9.60;1.00;;;;;;5063608;28;20050;-81
2023/04/09 07:05:18;;;;;;;43.90;20.48;;;9.40;1.00;;;;;;5055289;28;20066;-83
2023/04/09 07:07:44;;;;;;;40.30;19.85;;;9.20;1.00;;;;;;5030633;28;20044;-80
2023/04/09 07:10:10;;;;;;;38.45;19.90;;;9.40;1.00;;;;;;5069278;28;20040;-82
2023/04/09 07:12:36;;;;;;;38.08;20.65;;;9.70;1.00;;;;;;5053336;28;20052;-86
2023/04/09 07:15:03;;;;;;;43.60;21.40;;;9.40;1.00;;;;;;5068971;28;20145;-81
2023/04/09 07:17:30;;;;;;;42.40;20.55;;;9.70;1.00;;;;;;5055166;28;20119;-81
2023/04/09 07:19:55;;;;;;;45.53;22.13;;;9.70;1.00;;;;;;5067171;28;20152;-81
2023/04/09 07:22:22;;;;;;;46.05;21.65;;;9.80;1.00;;;;;;5055541;28;20119;-82
2023/04/09 07:24:52;;;;;;;42.22;20.55;;;9.90;1.00;;;;;;5070405;28;20056;-82
2023/04/09 07:27:22;;;;;;;40.00;20.50;;;10.00;1.00;;;;;;5089181;28;20040;-81
2023/04/09 07:29:48;;;;;;;42.85;20.90;;;10.00;1.00;;;;;;5072129;28;20047;-82
2023/04/09 07:32:14;;;;;;;43.25;22.00;;;10.00;1.00;;;;;;5054985;28;20061;-80
2023/04/09 07:34:40;;;;;;;43.85;21.83;;;10.20;1.00;;;;;;5075297;28;20048;-84
2023/04/09 07:37:06;;;;;;;40.78;20.42;;;10.00;1.00;;;;;;5039792;28;20056;-81
2023/04/09 07:39:32;;;;;;;44.22;22.33;;;10.30;1.00;;;;;;5063396;28;20041;-82
2023/04/09 07:42:01;;;;;;;40.80;21.40;;;10.30;1.00;;;;;;5060811;28;20113;-81
2023/04/09 07:44:28;;;;;;;41.50;21.33;;;10.40;1.00;;;;;;5053090;28;20087;-81
2023/04/09 07:46:53;;;;;;;46.90;22.92;;;10.50;99.90;;;;;;5046250;28;20076;-81
2023/04/09 07:49:20;;;;;;;42.78;21.95;;;10.70;99.90;;;;;;5063959;28;20492;-81
2023/04/09 07:51:46;;;;;;;42.85;21.35;;;10.70;99.90;;;;;;5067671;28;20040;-81
2023/04/09 07:54:12;;;;;;;41.95;22.15;;;10.70;99.90;;;;;;5089279;28;20043;-81
2023/04/09 07:56:38;;;;;;;40.30;22.70;;;10.70;99.90;;;;;;5058969;28;20389;-82
2023/04/09 07:59:03;;;;;;;42.75;21.98;;;10.80;99.90;;;;;;5054269;28;20082;-81
2023/04/09 08:01:30;;;;;;;43.15;22.75;;;11.00;99.90;;;;;;5052014;28;20051;-82
2023/04/09 08:03:55;;;;;;;41.15;21.52;;;10.90;99.90;;;;;;5069050;28;20051;-81
2023/04/09 08:06:21;;;;;;;41.70;22.02;;;11.10;99.90;;;;;;5071636;28;20052;-82
2023/04/09 08:08:47;;;;;;;39.17;20.42;;;11.00;99.90;;;;;;5052069;28;20043;-82
2023/04/09 08:11:12;;;;;;;44.40;22.13;;;11.00;99.90;;;;;;5069000;28;20492;-81
2023/04/09 08:13:39;;;;;;;40.80;22.63;;;11.10;99.90;;;;;;5055136;28;20109;-81
2023/04/09 08:16:05;;;;;;;40.63;21.60;;;11.10;99.90;;;;;;5028108;28;20051;-81
2023/04/09 08:18:31;;;;;;;37.67;21.17;;;11.10;99.90;;;;;;5054917;28;20513;-81
2023/04/09 08:20:56;;;;;;;38.65;19.67;;;11.40;99.90;;;;;;5087939;28;20072;-81
2023/04/09 08:23:22;;;;;;;42.03;20.33;;;11.60;99.90;;;;;;5038427;28;20052;-81
2023/04/09 08:25:48;;;;;;;41.05;21.05;;;11.70;99.90;;;;;;5066985;28;20044;-82
2023/04/09 08:28:13;;;;;;;36.63;19.70;;;11.80;99.90;;;;;;5045192;28;20091;-81
2023/04/09 08:30:39;;;;;;;38.38;19.63;;;11.90;99.90;;;;;;5067811;28;20043;-80
2023/04/09 08:33:05;;;;;;;34.90;19.38;;;12.00;99.90;;;;;;5084606;28;20248;-82
2023/04/09 08:35:30;;;;;;;35.05;20.35;;;11.80;99.90;;;;;;5058679;28;20091;-81
2023/04/09 08:37:56;;;;;;;37.45;19.75;;;11.90;99.90;;;;;;5051402;28;20050;-81
2023/04/09 08:40:22;;;;;;;37.90;20.48;;;11.80;99.90;;;;;;5066166;28;20035;-81
2023/04/09 08:42:56;;;;;;;39.58;20.88;;;12.00;99.90;;;;;;5054892;28;20048;-83
2023/04/09 08:45:22;;;;;;;37.90;19.98;;;12.10;99.90;;;;;;5058333;28;20115;-82
2023/04/09 08:47:50;;;;;;;36.22;20.30;;;12.00;99.90;;;;;;5083030;28;20052;-85
2023/04/09 08:50:15;;;;;;;37.63;21.17;;;12.20;99.90;;;;;;5069540;28;20055;-82
2023/04/09 08:52:43;;;;;;;33.55;19.45;;;12.50;99.90;;;;;;5071629;28;20040;-81
2023/04/09 08:55:11;;;;;;;33.38;18.80;;;12.60;99.90;;;;;;5047176;28;20043;-81
2023/04/09 08:57:40;;;;;;;36.90;18.55;;;12.80;99.90;;;;;;5059719;28;20046;-82
2023/04/09 09:00:07;;;;;;;35.38;19.33;;;12.70;99.90;;;;;;5056176;28;20129;-81
2023/04/09 09:02:33;;;;;;;33.47;19.05;;;12.80;99.90;;;;;;5065358;28;20048;-82
2023/04/09 09:05:01;;;;;;;34.75;19.23;;;12.80;99.90;;;;;;5052549;28;20043;-81
2023/04/09 09:07:31;;;;;;;34.45;19.35;;;13.00;99.90;;;;;;5064499;28;20058;-81
2023/04/09 09:10:04;;;;;;;32.83;19.02;;;13.40;99.90;;;;;;5063464;28;20050;-81
2023/04/09 09:12:41;;;;;;;34.33;19.00;;;13.50;99.90;;;;;;5046424;28;20045;-82
2023/04/09 09:15:27;;;;;;;34.22;19.27;;;13.40;99.90;;;;;;5057260;28;20482;-82
2023/04/09 09:17:55;;;;;;;35.78;19.27;;;13.70;99.90;;;;;;5061104;28;20122;-85
2023/04/09 09:20:22;;;;;;;41.42;20.40;;;13.90;99.90;;;;;;5070755;28;20055;-81
2023/04/09 09:22:50;;;;;;;37.60;19.10;;;14.00;99.90;;;;;;5041110;28;20045;-84
2023/04/09 09:25:15;;;;;;;38.70;19.40;;;14.00;99.90;;;;;;5063035;28;20043;-81
2023/04/09 09:27:42;;;;;;;35.35;20.92;;;14.00;99.90;;;;;;5037300;28;20477;-81
2023/04/09 09:30:09;;;;;;;36.45;20.35;;;14.00;97.80;;;;;;5054022;28;20457;-81
2023/04/09 09:32:35;;;;;;;44.08;20.73;;;14.00;99.90;;;;;;5054626;28;20413;-81
2023/04/09 09:35:06;;;;;;;32.70;18.40;;;14.10;99.90;;;;;;5048645;28;20051;-80
2023/04/09 09:37:33;;;;;;;28.70;17.67;;;14.40;95.40;;;;;;5083122;28;20040;-80
2023/04/09 09:39:59;;;;;;;39.83;20.60;;;14.50;91.30;;;;;;5070946;28;20071;-82
2023/04/09 09:42:28;;;;;;;47.78;20.63;;;14.60;91.90;;;;;;5057889;28;20051;-82
2023/04/09 09:44:54;;;;;;;43.50;19.27;;;14.60;78.90;;;;;;5079013;28;20047;-81
2023/04/09 09:47:21;;;;;;;29.88;18.30;;;15.00;72.60;;;;;;5075221;28;20104;-80
2023/04/09 09:49:49;;;;;;;33.58;19.27;;;15.00;67.10;;;;;;5059628;28;20497;-82
2023/04/09 09:52:16;;;;;;;31.58;19.42;;;15.10;61.50;;;;;;5044842;28;20049;-81
2023/04/09 09:54:47;;;;;;;30.77;19.67;;;14.90;69.50;;;;;;5076808;28;20040;-81
2023/04/09 09:57:16;;;;;;;34.50;19.15;;;14.80;57.10;;;;;;5058874;28;20048;-81
2023/04/09 10:00:00;;;;;;;29.15;17.33;;;;;;;;;;5040505;28;20041;-83
2023/04/09 10:02:32;;;;;;;26.35;17.08;;;17.40;39.30;;;;;;5072309;28;20080;-80
2023/04/09 10:05:00;;;;;;;28.92;17.88;;;17.60;38.40;;;;;;5060433;28;20044;-85
2023/04/09 10:07:27;;;;;;;28.40;18.10;;;17.20;1.00;;;;;;5063290;28;20043;-80
2023/04/09 10:09:55;;;;;;;27.40;17.67;;;16.90;24.20;;;;;;5077464;28;20401;-85
2023/04/09 10:12:22;;;;;;;26.75;17.52;;;17.60;33.60;;;;;;5076347;28;20533;-83
2023/04/09 10:14:49;;;;;;;28.17;17.90;;;17.80;1.00;;;;;;5076496;28;20109;-81
2023/04/09 10:17:16;;;;;;;27.00;17.80;;;18.70;1.00;;;;;;5080724;28;20062;-84
2023/04/09 10:19:51;;;;;;;25.98;16.42;;;18.80;1.00;;;;;;5073936;28;20131;-82
2023/04/09 10:22:20;;;;;;;25.90;17.15;;;18.70;1.00;;;;;;5065464;28;20052;-82
2023/04/09 10:24:46;;;;;;;27.10;16.73;;;18.90;1.00;;;;;;5070460;28;20044;-81
2023/04/09 10:27:15;;;;;;;26.40;18.55;;;18.90;1.00;;;;;;5075433;28;20062;-81
2023/04/09 10:29:48;;;;;;;26.75;18.88;;;18.90;1.00;;;;;;5076280;28;20076;-81
2023/04/09 10:32:27;;;;;;;28.92;18.63;;;17.90;1.00;;;;;;5069672;28;20048;-80
2023/04/09 10:34:56;;;;;;;27.95;18.35;;;17.20;1.00;;;;;;5043805;28;20040;-81
2023/04/09 10:37:24;;;;;;;29.90;19.15;;;16.50;1.00;;;;;;5062203;28;20047;-81
2023/04/09 10:39:51;;;;;;;28.30;17.98;;;16.00;1.00;;;;;;5068659;28;20746;-80
2023/04/09 10:42:34;;;;;;;31.25;19.35;;;16.40;1.00;;;;;;5068471;28;20060;-81
2023/04/09 10:45:10;;;;;;;27.63;19.48;;;18.30;1.00;;;;;;5060664;28;20714;-82
2023/04/09 10:47:37;;;;;;;28.23;18.55;;;19.80;1.00;;;;;;5087993;28;20045;-81
2023/04/09 10:50:26;;;;;;;29.48;18.50;;;20.30;1.00;;;;;;5076167;28;20506;-89
2023/04/09 10:52:55;;;;;;;27.98;19.42;;;19.60;1.00;;;;;;5058359;28;20055;-81
2023/04/09 10:55:37;;;;;;;29.40;19.45;;;19.60;1.00;;;;;;5092770;28;20767;-82
2023/04/09 10:58:04;;;;;;;28.92;19.70;;;19.40;1.00;;;;;;5065055;28;20051;-81
2023/04/09 11:00:30;;;;;;;27.52;18.58;;;18.90;1.00;;;;;;5074350;28;20044;-81
2023/04/09 11:03:04;;;;;;;29.38;19.73;;;18.10;1.00;;;;;;5083741;28;20504;-81
2023/04/09 11:05:33;;;;;;;28.15;18.17;;;19.30;1.00;;;;;;5070282;28;20097;-81
2023/04/09 11:08:10;;;;;;;26.35;18.92;;;19.40;1.00;;;;;;5072849;28;20040;-81
2023/04/09 11:10:46;;;;;;;24.00;16.08;;;21.00;1.00;;;;;;5094167;28;20064;-82
2023/04/09 11:13:16;;;;;;;22.38;16.27;;;22.20;1.00;;;;;;5068547;28;20448;-81
2023/04/09 11:15:43;;;;;;;25.80;17.42;;;22.80;1.00;;;;;;5056165;28;20053;-82
2023/04/09 11:18:13;;;;;;;22.38;17.30;;;23.50;1.00;;;;;;5068865;28;20057;-83
2023/04/09 11:20:39;;;;;;;24.58;16.40;;;22.80;1.00;;;;;;5075798;28;20124;-82
2023/04/09 11:23:06;;;;;;;25.92;18.42;;;21.90;1.00;;;;;;5059039;28;20040;-82
2023/04/09 11:25:33;;;;;;;24.20;16.75;;;21.20;1.00;;;;;;5074012;28;20044;-82
2023/04/09 11:28:02;;;;;;;23.58;16.35;;;21.30;1.00;;;;;;5058990;28;20043;-82
2023/04/09 11:30:27;;;;;;;21.25;15.48;;;22.50;1.00;;;;;;5055255;28;20045;-82
2023/04/09 11:32:53;;;;;;;24.08;17.08;;;22.20;1.00;;;;;;5051814;28;20058;-82
2023/04/09 11:35:21;;;;;;;22.65;16.63;;;22.90;1.00;;;;;;5091561;28;20044;-82
2023/04/09 11:37:47;;;;;;;20.00;14.73;;;23.30;1.00;;;;;;5073933;28;20090;-82
2023/04/09 11:40:18;;;;;;;23.20;16.17;;;24.30;1.00;;;;;;5053815;28;20040;-82
2023/04/09 11:42:45;;;;;;;20.90;15.60;;;25.00;1.00;;;;;;5075021;28;20051;-82
2023/04/09 11:45:11;;;;;;;26.42;19.38;;;25.10;1.00;;;;;;5054384;28;20132;-86
2023/04/09 11:47:42;;;;;;;26.73;19.00;;;23.50;1.00;;;;;;5052979;28;20040;-82
2023/04/09 11:50:09;;;;;;;24.50;17.85;;;22.50;1.00;;;;;;5091573;28;20372;-82
2023/04/09 11:52:35;;;;;;;21.63;16.10;;;22.00;1.00;;;;;;5067712;28;20131;-82
2023/04/09 11:55:05;;;;;;;21.85;17.08;;;22.20;1.00;;;;;;5054746;28;20048;-82
2023/04/09 11:57:43;;;;;;;21.92;16.25;;;23.50;1.00;;;;;;5041644;28;20052;-83
2023/04/09 12:00:14;;;;;;;23.60;17.95;;;24.50;1.00;;;;;;5074429;28;20040;-82
2023/04/09 12:02:45;;;;;;;21.30;15.73;;;25.40;1.00;;;;;;5057271;28;20054;-85
2023/04/09 12:05:22;;;;;;;21.58;15.50;;;25.70;1.00;;;;;;5073610;28;20104;-82
2023/04/09 12:07:48;;;;;;;21.98;16.27;;;25.90;1.00;;;;;;5074045;28;20083;-83
2023/04/09 12:10:13;;;;;;;23.77;17.35;;;25.70;1.00;;;;;;5074155;28;20648;-82
2023/04/09 12:12:46;;;;;;;19.10;14.10;;;26.50;1.00;;;;;;5074242;28;20104;-82
2023/04/09 12:15:32;;;;;;;24.45;18.02;;;26.70;1.00;;;;;;5074570;28;20040;-82
2023/04/09 12:17:59;;;;;;;21.00;15.52;;;;;;;;;;5074385;28;20105;-88
2023/04/09 12:20:41;;;;;;;19.30;14.25;;;25.90;1.00;;;;;;5072824;28;20052;-83
2023/04/09 12:23:07;;;;;;;18.90;15.25;;;26.00;1.00;;;;;;5070375;28;20086;-82
2023/04/09 12:25:38;;;;;;;19.42;14.25;;;26.60;1.00;;;;;;5066486;28;20044;-83
2023/04/09 12:28:06;;;;;;;17.33;13.27;;;26.50;1.00;;;;;;5074216;28;20048;-82
2023/04/09 12:30:32;;;;;;;17.23;12.85;;;25.50;1.00;;;;;;5071539;28;20048;-81
2023/04/09 12:32:58;;;;;;;19.05;13.57;;;24.60;1.00;;;;;;5052224;28;20043;-83
2023/04/09 12:35:24;;;;;;;19.02;13.73;;;23.70;1.00;;;;;;5073917;28;20073;-81
2023/04/09 12:37:50;;;;;;;18.60;14.13;;;23.20;1.00;;;;;;5086569;28;20164;-82